Airfield :
LOGIN :

Register | Disclaimer

   EN    FR    IT 

 










Legend :    VFR   Marginal VFR   IFR   Intensive IFR   Very Intensive IFR
Visi :
Ceiling :
>= 8 km
>= 3000ft
5 to 8 km
1000 to 3000 ft
1500m to 5 km
500 to 1000 ft
800 to 1500m
200 to 500 ft
< 800m
< 200 ft
Symbols :   Thunderstorms  Fog  Heavy snow  Heavy precipitations  Wind > 20 kt
SIGMETs :     Misc.  Thunderstorms  Icing  Turbulence  Mountain Waves  Volcanic Ashes







- Airport Elevation : 56 ft
- IATA code : ILY
- Download approach charts


EGPI - Islay

CURRENT METAR :
  • 191650Z 15013KT 120V180 9999 SCT048 14/12 Q1016

EXPIRED METARs :
  • 191620Z 14012KT 9999 SCT038 14/12 Q1015
  • 191550Z AUTO 14013KT 110V170 9999 NCD 15/12 Q1016
  • 191520Z AUTO 14011KT 110V170 9999 FEW012/// 15/12 Q1016
  • 191450Z 15011KT 110V180 9999 FEW014 SCT044 15/12 Q1016
  • 191420Z 16010KT 9999 FEW015 SCT048 15/12 Q1017

TAF TAF EGPI
Valid from the 19 at 15:00 until the 19 at 18:00 UTC


191358Z 1915/1918 16012KT 9999 FEW015 BKN025
No reported NOTAMs for that airfield.



MET'MAP, your aeronautical weather chart ! - Copyright ORBIFLY December 2007 - Disclaimer

ORBIFLY MET'MAP TEAM :

Programming & Development : Alexandra Zaïnal
Concept & Development : Baudouin d'Aumeries
Co-Development & Prog : Marc-Olivier Méhu
Technical & hardware support : Manuel Goepfert

Contact : metmap@orbifly.com




SOURCES & CREDITS :

   NOAA